sensor_id;sensor_type;location;lat;lon;timestamp;temperature;humidity
16032;DHT22;8120;48.308;8.914;2023-11-18T00:00:06;3.00;97.60
16032;DHT22;8120;48.308;8.914;2023-11-18T00:02:39;3.00;97.90
16032;DHT22;8120;48.308;8.914;2023-11-18T00:05:09;3.00;98.00
16032;DHT22;8120;48.308;8.914;2023-11-18T00:07:37;2.90;98.10
16032;DHT22;8120;48.308;8.914;2023-11-18T00:10:06;3.00;98.20
16032;DHT22;8120;48.308;8.914;2023-11-18T00:12:36;3.00;98.20
16032;DHT22;8120;48.308;8.914;2023-11-18T00:15:08;3.00;98.20
16032;DHT22;8120;48.308;8.914;2023-11-18T00:17:37;3.00;98.10
16032;DHT22;8120;48.308;8.914;2023-11-18T00:20:06;3.00;98.00
16032;DHT22;8120;48.308;8.914;2023-11-18T00:22:39;3.00;97.50
16032;DHT22;8120;48.308;8.914;2023-11-18T00:25:08;3.00;96.90
16032;DHT22;8120;48.308;8.914;2023-11-18T00:27:39;3.00;96.70
16032;DHT22;8120;48.308;8.914;2023-11-18T00:30:07;3.00;96.60
16032;DHT22;8120;48.308;8.914;2023-11-18T00:32:37;3.00;96.60
16032;DHT22;8120;48.308;8.914;2023-11-18T00:35:07;3.00;96.70
16032;DHT22;8120;48.308;8.914;2023-11-18T00:37:35;3.00;96.70
16032;DHT22;8120;48.308;8.914;2023-11-18T00:40:04;3.00;96.80
16032;DHT22;8120;48.308;8.914;2023-11-18T00:42:33;2.90;96.90
16032;DHT22;8120;48.308;8.914;2023-11-18T00:45:03;2.90;97.10
16032;DHT22;8120;48.308;8.914;2023-11-18T00:47:31;2.90;97.10
16032;DHT22;8120;48.308;8.914;2023-11-18T00:49:59;2.90;97.20
16032;DHT22;8120;48.308;8.914;2023-11-18T00:52:29;3.00;97.30
16032;DHT22;8120;48.308;8.914;2023-11-18T00:54:57;3.00;97.30
16032;DHT22;8120;48.308;8.914;2023-11-18T00:57:24;3.00;97.40
16032;DHT22;8120;48.308;8.914;2023-11-18T00:59:52;3.00;97.20
16032;DHT22;8120;48.308;8.914;2023-11-18T01:02:22;3.00;97.10
16032;DHT22;8120;48.308;8.914;2023-11-18T01:04:50;3.00;97.00
16032;DHT22;8120;48.308;8.914;2023-11-18T01:07:18;3.00;96.90
16032;DHT22;8120;48.308;8.914;2023-11-18T01:09:45;3.00;96.70
16032;DHT22;8120;48.308;8.914;2023-11-18T01:12:13;3.00;96.70
16032;DHT22;8120;48.308;8.914;2023-11-18T01:14:41;3.10;96.50
16032;DHT22;8120;48.308;8.914;2023-11-18T01:17:09;3.10;96.40
16032;DHT22;8120;48.308;8.914;2023-11-18T01:19:39;3.10;96.10
16032;DHT22;8120;48.308;8.914;2023-11-18T01:22:06;3.10;95.60
16032;DHT22;8120;48.308;8.914;2023-11-18T01:24:35;3.10;95.30
16032;DHT22;8120;48.308;8.914;2023-11-18T01:27:03;3.10;95.00
16032;DHT22;8120;48.308;8.914;2023-11-18T01:29:31;3.10;94.90
16032;DHT22;8120;48.308;8.914;2023-11-18T01:32:00;3.10;95.10
16032;DHT22;8120;48.308;8.914;2023-11-18T01:34:35;3.10;95.40
16032;DHT22;8120;48.308;8.914;2023-11-18T01:37:06;3.00;95.50
16032;DHT22;8120;48.308;8.914;2023-11-18T01:39:36;3.00;95.70
16032;DHT22;8120;48.308;8.914;2023-11-18T01:42:04;3.00;95.80
16032;DHT22;8120;48.308;8.914;2023-11-18T01:44:32;3.00;95.80
16032;DHT22;8120;48.308;8.914;2023-11-18T01:47:03;3.00;95.50
16032;DHT22;8120;48.308;8.914;2023-11-18T01:49:34;3.10;95.20
16032;DHT22;8120;48.308;8.914;2023-11-18T01:52:06;3.10;94.80
16032;DHT22;8120;48.308;8.914;2023-11-18T01:54:36;3.20;94.40
16032;DHT22;8120;48.308;8.914;2023-11-18T01:57:06;3.20;94.20
16032;DHT22;8120;48.308;8.914;2023-11-18T01:59:36;3.20;94.40
16032;DHT22;8120;48.308;8.914;2023-11-18T02:02:07;3.10;94.60
16032;DHT22;8120;48.308;8.914;2023-11-18T02:04:35;3.20;94.80
16032;DHT22;8120;48.308;8.914;2023-11-18T02:07:03;3.20;94.90
16032;DHT22;8120;48.308;8.914;2023-11-18T02:09:37;3.20;94.70
16032;DHT22;8120;48.308;8.914;2023-11-18T02:12:15;3.20;94.80
16032;DHT22;8120;48.308;8.914;2023-11-18T02:14:45;3.20;94.80
16032;DHT22;8120;48.308;8.914;2023-11-18T02:17:14;3.20;95.00
16032;DHT22;8120;48.308;8.914;2023-11-18T02:19:45;3.20;95.40
16032;DHT22;8120;48.308;8.914;2023-11-18T02:22:13;3.20;95.60
16032;DHT22;8120;48.308;8.914;2023-11-18T02:24:44;3.20;95.90
16032;DHT22;8120;48.308;8.914;2023-11-18T02:27:14;3.20;95.90
16032;DHT22;8120;48.308;8.914;2023-11-18T02:29:43;3.20;95.80
16032;DHT22;8120;48.308;8.914;2023-11-18T02:32:17;3.10;95.60
16032;DHT22;8120;48.308;8.914;2023-11-18T02:34:54;3.00;95.60
16032;DHT22;8120;48.308;8.914;2023-11-18T02:37:25;3.00;95.50
16032;DHT22;8120;48.308;8.914;2023-11-18T02:40:00;3.00;95.20
16032;DHT22;8120;48.308;8.914;2023-11-18T02:42:32;3.00;95.00
16032;DHT22;8120;48.308;8.914;2023-11-18T02:45:00;2.90;95.10
16032;DHT22;8120;48.308;8.914;2023-11-18T02:47:29;2.90;95.30
16032;DHT22;8120;48.308;8.914;2023-11-18T02:49:57;2.90;95.80
16032;DHT22;8120;48.308;8.914;2023-11-18T02:52:32;2.90;96.30
16032;DHT22;8120;48.308;8.914;2023-11-18T02:55:01;2.90;96.80
16032;DHT22;8120;48.308;8.914;2023-11-18T02:57:31;2.90;97.20
16032;DHT22;8120;48.308;8.914;2023-11-18T02:59:59;2.90;97.20
16032;DHT22;8120;48.308;8.914;2023-11-18T03:02:27;2.90;97.20
16032;DHT22;8120;48.308;8.914;2023-11-18T03:04:57;2.90;97.30
16032;DHT22;8120;48.308;8.914;2023-11-18T03:07:26;2.80;97.50
16032;DHT22;8120;48.308;8.914;2023-11-18T03:09:54;2.80;97.60
16032;DHT22;8120;48.308;8.914;2023-11-18T03:12:24;2.80;97.80
16032;DHT22;8120;48.308;8.914;2023-11-18T03:14:56;2.70;97.90
16032;DHT22;8120;48.308;8.914;2023-11-18T03:17:24;2.70;98.10
16032;DHT22;8120;48.308;8.914;2023-11-18T03:19:52;2.60;98.30
16032;DHT22;8120;48.308;8.914;2023-11-18T03:22:20;2.60;98.60
16032;DHT22;8120;48.308;8.914;2023-11-18T03:24:49;2.60;98.80
16032;DHT22;8120;48.308;8.914;2023-11-18T03:27:17;2.60;99.00
16032;DHT22;8120;48.308;8.914;2023-11-18T03:29:46;2.60;99.10
16032;DHT22;8120;48.308;8.914;2023-11-18T03:32:16;2.60;99.20
16032;DHT22;8120;48.308;8.914;2023-11-18T03:34:44;2.50;99.10
16032;DHT22;8120;48.308;8.914;2023-11-18T03:37:12;2.50;99.20
16032;DHT22;8120;48.308;8.914;2023-11-18T03:39:40;2.40;99.20
16032;DHT22;8120;48.308;8.914;2023-11-18T03:42:08;2.40;99.50
16032;DHT22;8120;48.308;8.914;2023-11-18T03:44:36;2.40;99.80
16032;DHT22;8120;48.308;8.914;2023-11-18T03:47:05;2.30;99.90
16032;DHT22;8120;48.308;8.914;2023-11-18T03:49:35;2.30;99.90
16032;DHT22;8120;48.308;8.914;2023-11-18T03:52:03;2.20;99.90
16032;DHT22;8120;48.308;8.914;2023-11-18T03:54:32;2.20;99.90
16032;DHT22;8120;48.308;8.914;2023-11-18T03:57:00;2.20;99.90
16032;DHT22;8120;48.308;8.914;2023-11-18T03:59:29;2.10;99.90
16032;DHT22;8120;48.308;8.914;2023-11-18T04:01:56;2.00;99.90
16032;DHT22;8120;48.308;8.914;2023-11-18T04:04:24;2.00;99.90
16032;DHT22;8120;48.308;8.914;2023-11-18T04:06:55;1.90;99.90
16032;DHT22;8120;48.308;8.914;2023-11-18T04:09:23;1.80;99.90
16032;DHT22;8120;48.308;8.914;2023-11-18T04:11:53;1.70;99.90
16032;DHT22;8120;48.308;8.914;2023-11-18T04:14:20;1.60;99.90
16032;DHT22;8120;48.308;8.914;2023-11-18T04:16:48;1.50;99.90
16032;DHT22;8120;48.308;8.914;2023-11-18T04:19:17;1.40;99.90
16032;DHT22;8120;48.308;8.914;2023-11-18T04:21:46;1.40;99.90
16032;DHT22;8120;48.308;8.914;2023-11-18T04:24:17;1.40;99.90
16032;DHT22;8120;48.308;8.914;2023-11-18T04:26:45;1.40;99.90
16032;DHT22;8120;48.308;8.914;2023-11-18T04:29:14;1.40;99.90
16032;DHT22;8120;48.308;8.914;2023-11-18T04:31:42;1.30;99.90
16032;DHT22;8120;48.308;8.914;2023-11-18T04:34:10;1.30;99.90
16032;DHT22;8120;48.308;8.914;2023-11-18T04:36:40;1.30;99.90
16032;DHT22;8120;48.308;8.914;2023-11-18T04:39:08;1.20;99.90
16032;DHT22;8120;48.308;8.914;2023-11-18T04:41:39;1.20;99.90
16032;DHT22;8120;48.308;8.914;2023-11-18T04:44:07;1.10;99.90
16032;DHT22;8120;48.308;8.914;2023-11-18T04:46:35;1.10;99.90
16032;DHT22;8120;48.308;8.914;2023-11-18T04:49:03;1.00;99.90
16032;DHT22;8120;48.308;8.914;2023-11-18T04:51:32;1.00;99.90
16032;DHT22;8120;48.308;8.914;2023-11-18T04:54:00;1.00;99.90
16032;DHT22;8120;48.308;8.914;2023-11-18T04:56:30;0.90;99.90
16032;DHT22;8120;48.308;8.914;2023-11-18T04:58:59;0.90;99.90
16032;DHT22;8120;48.308;8.914;2023-11-18T05:01:27;0.90;99.90
16032;DHT22;8120;48.308;8.914;2023-11-18T05:03:55;0.90;99.90
16032;DHT22;8120;48.308;8.914;2023-11-18T05:06:23;0.80;99.90
16032;DHT22;8120;48.308;8.914;2023-11-18T05:08:51;0.80;99.90
16032;DHT22;8120;48.308;8.914;2023-11-18T05:11:19;0.70;99.90
16032;DHT22;8120;48.308;8.914;2023-11-18T05:13:47;0.70;99.90
16032;DHT22;8120;48.308;8.914;2023-11-18T05:16:17;0.70;99.90
16032;DHT22;8120;48.308;8.914;2023-11-18T05:18:45;0.50;99.90
16032;DHT22;8120;48.308;8.914;2023-11-18T05:21:13;0.50;99.90
16032;DHT22;8120;48.308;8.914;2023-11-18T05:23:41;0.50;99.90
16032;DHT22;8120;48.308;8.914;2023-11-18T05:26:09;0.40;99.90
16032;DHT22;8120;48.308;8.914;2023-11-18T05:28:37;0.40;99.90
16032;DHT22;8120;48.308;8.914;2023-11-18T05:31:05;0.40;99.90
16032;DHT22;8120;48.308;8.914;2023-11-18T05:33:34;0.40;99.90
16032;DHT22;8120;48.308;8.914;2023-11-18T05:36:02;0.30;99.90
16032;DHT22;8120;48.308;8.914;2023-11-18T05:38:32;0.30;99.90
16032;DHT22;8120;48.308;8.914;2023-11-18T05:41:02;0.20;99.90
16032;DHT22;8120;48.308;8.914;2023-11-18T05:43:33;0.20;99.90
16032;DHT22;8120;48.308;8.914;2023-11-18T05:46:07;0.20;99.90
16032;DHT22;8120;48.308;8.914;2023-11-18T05:48:48;0.30;99.90
16032;DHT22;8120;48.308;8.914;2023-11-18T05:51:19;0.30;99.90
16032;DHT22;8120;48.308;8.914;2023-11-18T05:53:48;0.20;99.90
16032;DHT22;8120;48.308;8.914;2023-11-18T05:56:16;0.20;99.90
16032;DHT22;8120;48.308;8.914;2023-11-18T05:58:44;0.00;99.90
16032;DHT22;8120;48.308;8.914;2023-11-18T06:01:13;0.10;99.90
16032;DHT22;8120;48.308;8.914;2023-11-18T06:03:42;0.00;99.90
16032;DHT22;8120;48.308;8.914;2023-11-18T06:06:12;-0.10;99.90
16032;DHT22;8120;48.308;8.914;2023-11-18T06:08:47;-0.20;99.90
16032;DHT22;8120;48.308;8.914;2023-11-18T06:11:15;-0.10;99.90
16032;DHT22;8120;48.308;8.914;2023-11-18T06:13:47;-0.10;99.90
16032;DHT22;8120;48.308;8.914;2023-11-18T06:16:17;-0.10;99.90
16032;DHT22;8120;48.308;8.914;2023-11-18T06:18:48;-0.10;99.90
16032;DHT22;8120;48.308;8.914;2023-11-18T06:21:19;-0.10;99.90
16032;DHT22;8120;48.308;8.914;2023-11-18T06:23:51;-0.20;99.90
16032;DHT22;8120;48.308;8.914;2023-11-18T06:26:22;-0.20;99.90
16032;DHT22;8120;48.308;8.914;2023-11-18T06:28:51;-0.20;99.90
16032;DHT22;8120;48.308;8.914;2023-11-18T06:31:19;-0.30;99.90
16032;DHT22;8120;48.308;8.914;2023-11-18T06:33:47;-0.30;99.90
16032;DHT22;8120;48.308;8.914;2023-11-18T06:36:20;-0.30;99.90
16032;DHT22;8120;48.308;8.914;2023-11-18T06:38:50;-0.30;99.90
16032;DHT22;8120;48.308;8.914;2023-11-18T06:41:19;0.00;99.90
16032;DHT22;8120;48.308;8.914;2023-11-18T06:43:50;0.20;99.90
16032;DHT22;8120;48.308;8.914;2023-11-18T06:46:28;0.20;99.90
16032;DHT22;8120;48.308;8.914;2023-11-18T06:48:58;0.20;99.90
16032;DHT22;8120;48.308;8.914;2023-11-18T06:51:32;0.10;99.90
16032;DHT22;8120;48.308;8.914;2023-11-18T06:54:04;0.00;99.90
16032;DHT22;8120;48.308;8.914;2023-11-18T06:56:38;-0.10;99.90
16032;DHT22;8120;48.308;8.914;2023-11-18T06:59:06;-0.20;99.90
16032;DHT22;8120;48.308;8.914;2023-11-18T07:01:34;-0.20;99.90
16032;DHT22;8120;48.308;8.914;2023-11-18T07:04:03;-0.10;99.90
16032;DHT22;8120;48.308;8.914;2023-11-18T07:06:37;0.00;99.90
16032;DHT22;8120;48.308;8.914;2023-11-18T07:09:06;0.10;99.90
16032;DHT22;8120;48.308;8.914;2023-11-18T07:11:39;0.20;99.90
16032;DHT22;8120;48.308;8.914;2023-11-18T07:14:08;0.40;99.90
16032;DHT22;8120;48.308;8.914;2023-11-18T07:16:38;0.60;99.90
16032;DHT22;8120;48.308;8.914;2023-11-18T07:19:07;0.70;99.90
16032;DHT22;8120;48.308;8.914;2023-11-18T07:21:40;0.70;99.90
16032;DHT22;8120;48.308;8.914;2023-11-18T07:24:08;0.80;99.90
16032;DHT22;8120;48.308;8.914;2023-11-18T07:26:36;0.90;99.90
16032;DHT22;8120;48.308;8.914;2023-11-18T07:29:04;0.90;99.90
16032;DHT22;8120;48.308;8.914;2023-11-18T07:31:34;0.90;99.90
16032;DHT22;8120;48.308;8.914;2023-11-18T07:34:03;0.90;99.90
16032;DHT22;8120;48.308;8.914;2023-11-18T07:36:32;0.80;99.90
16032;DHT22;8120;48.308;8.914;2023-11-18T07:39:02;0.80;99.90
16032;DHT22;8120;48.308;8.914;2023-11-18T07:41:31;0.90;99.90
16032;DHT22;8120;48.308;8.914;2023-11-18T07:44:00;1.00;99.90
16032;DHT22;8120;48.308;8.914;2023-11-18T07:46:28;1.00;99.90
16032;DHT22;8120;48.308;8.914;2023-11-18T07:48:58;1.10;99.90
16032;DHT22;8120;48.308;8.914;2023-11-18T07:51:28;1.10;99.90
16032;DHT22;8120;48.308;8.914;2023-11-18T07:53:56;1.10;99.90
16032;DHT22;8120;48.308;8.914;2023-11-18T07:56:26;1.10;99.90
16032;DHT22;8120;48.308;8.914;2023-11-18T07:58:55;1.10;99.90
16032;DHT22;8120;48.308;8.914;2023-11-18T08:01:23;1.00;99.90
16032;DHT22;8120;48.308;8.914;2023-11-18T08:03:53;1.20;99.90
16032;DHT22;8120;48.308;8.914;2023-11-18T08:06:21;1.30;99.90
16032;DHT22;8120;48.308;8.914;2023-11-18T08:08:51;1.30;99.90
16032;DHT22;8120;48.308;8.914;2023-11-18T08:11:20;1.50;99.80
16032;DHT22;8120;48.308;8.914;2023-11-18T08:13:51;1.70;99.30
16032;DHT22;8120;48.308;8.914;2023-11-18T08:16:20;1.80;98.60
16032;DHT22;8120;48.308;8.914;2023-11-18T08:18:49;1.90;97.90
16032;DHT22;8120;48.308;8.914;2023-11-18T08:21:17;2.00;97.20
16032;DHT22;8120;48.308;8.914;2023-11-18T08:23:44;2.10;96.40
16032;DHT22;8120;48.308;8.914;2023-11-18T08:26:11;2.20;95.50
16032;DHT22;8120;48.308;8.914;2023-11-18T08:28:39;2.20;94.30
16032;DHT22;8120;48.308;8.914;2023-11-18T08:31:09;2.20;93.70
16032;DHT22;8120;48.308;8.914;2023-11-18T08:33:42;2.00;93.70
16032;DHT22;8120;48.308;8.914;2023-11-18T08:36:13;2.10;94.50
16032;DHT22;8120;48.308;8.914;2023-11-18T08:38:41;2.20;94.60
16032;DHT22;8120;48.308;8.914;2023-11-18T08:41:11;2.20;94.00
16032;DHT22;8120;48.308;8.914;2023-11-18T08:43:39;2.30;93.80
16032;DHT22;8120;48.308;8.914;2023-11-18T08:46:09;2.40;93.90
16032;DHT22;8120;48.308;8.914;2023-11-18T08:48:37;2.60;93.80
16032;DHT22;8120;48.308;8.914;2023-11-18T08:51:05;2.70;93.10
16032;DHT22;8120;48.308;8.914;2023-11-18T08:53:35;2.90;93.60
16032;DHT22;8120;48.308;8.914;2023-11-18T08:56:08;3.20;93.20
16032;DHT22;8120;48.308;8.914;2023-11-18T08:58:42;3.40;91.60
16032;DHT22;8120;48.308;8.914;2023-11-18T09:01:13;3.50;91.30
16032;DHT22;8120;48.308;8.914;2023-11-18T09:03:42;3.70;90.50
16032;DHT22;8120;48.308;8.914;2023-11-18T09:06:19;3.80;89.60
16032;DHT22;8120;48.308;8.914;2023-11-18T09:08:52;4.00;88.20
16032;DHT22;8120;48.308;8.914;2023-11-18T09:11:22;4.20;87.80
16032;DHT22;8120;48.308;8.914;2023-11-18T09:13:51;4.40;86.70
16032;DHT22;8120;48.308;8.914;2023-11-18T09:16:21;4.70;85.50
16032;DHT22;8120;48.308;8.914;2023-11-18T09:18:51;4.80;84.40
16032;DHT22;8120;48.308;8.914;2023-11-18T09:21:19;5.00;84.70
16032;DHT22;8120;48.308;8.914;2023-11-18T09:23:52;5.20;84.60
16032;DHT22;8120;48.308;8.914;2023-11-18T09:26:22;5.40;84.10
16032;DHT22;8120;48.308;8.914;2023-11-18T09:28:49;5.60;82.30
16032;DHT22;8120;48.308;8.914;2023-11-18T09:31:19;5.80;80.40
16032;DHT22;8120;48.308;8.914;2023-11-18T09:33:49;6.00;82.40
16032;DHT22;8120;48.308;8.914;2023-11-18T09:36:20;6.20;81.10
16032;DHT22;8120;48.308;8.914;2023-11-18T09:38:49;6.30;79.70
16032;DHT22;8120;48.308;8.914;2023-11-18T09:41:18;6.20;80.90
16032;DHT22;8120;48.308;8.914;2023-11-18T09:43:46;6.10;82.60
16032;DHT22;8120;48.308;8.914;2023-11-18T09:46:16;6.00;83.80
16032;DHT22;8120;48.308;8.914;2023-11-18T09:48:47;5.60;84.90
16032;DHT22;8120;48.308;8.914;2023-11-18T09:51:22;5.30;86.80
16032;DHT22;8120;48.308;8.914;2023-11-18T09:53:52;5.10;88.00
16032;DHT22;8120;48.308;8.914;2023-11-18T09:56:30;5.10;87.80
16032;DHT22;8120;48.308;8.914;2023-11-18T09:59:10;5.30;88.50
16032;DHT22;8120;48.308;8.914;2023-11-18T10:01:43;5.40;88.10
16032;DHT22;8120;48.308;8.914;2023-11-18T10:04:14;5.50;87.30
16032;DHT22;8120;48.308;8.914;2023-11-18T10:06:46;5.60;86.30
16032;DHT22;8120;48.308;8.914;2023-11-18T10:09:16;5.70;87.00
16032;DHT22;8120;48.308;8.914;2023-11-18T10:11:52;5.80;86.10
16032;DHT22;8120;48.308;8.914;2023-11-18T10:14:27;5.80;86.70
16032;DHT22;8120;48.308;8.914;2023-11-18T10:16:56;6.00;85.40
16032;DHT22;8120;48.308;8.914;2023-11-18T10:19:24;6.10;85.60
16032;DHT22;8120;48.308;8.914;2023-11-18T10:21:54;6.00;86.30
16032;DHT22;8120;48.308;8.914;2023-11-18T10:24:23;6.20;85.60
16032;DHT22;8120;48.308;8.914;2023-11-18T10:26:55;6.20;84.30
16032;DHT22;8120;48.308;8.914;2023-11-18T10:29:24;6.30;84.50
16032;DHT22;8120;48.308;8.914;2023-11-18T10:32:04;6.50;84.00
16032;DHT22;8120;48.308;8.914;2023-11-18T10:34:35;6.70;83.40
16032;DHT22;8120;48.308;8.914;2023-11-18T10:37:04;6.80;79.30
16032;DHT22;8120;48.308;8.914;2023-11-18T10:39:33;6.70;79.00
16032;DHT22;8120;48.308;8.914;2023-11-18T10:42:03;6.80;79.20
16032;DHT22;8120;48.308;8.914;2023-11-18T10:44:31;6.80;79.00
16032;DHT22;8120;48.308;8.914;2023-11-18T10:46:59;7.20;79.20
16032;DHT22;8120;48.308;8.914;2023-11-18T10:49:28;7.30;77.60
16032;DHT22;8120;48.308;8.914;2023-11-18T10:52:05;7.20;76.50
16032;DHT22;8120;48.308;8.914;2023-11-18T10:54:35;7.00;77.80
16032;DHT22;8120;48.308;8.914;2023-11-18T10:57:04;6.90;73.90
16032;DHT22;8120;48.308;8.914;2023-11-18T10:59:35;6.80;75.10
16032;DHT22;8120;48.308;8.914;2023-11-18T11:02:18;6.70;75.00
16032;DHT22;8120;48.308;8.914;2023-11-18T11:04:48;6.60;77.20
16032;DHT22;8120;48.308;8.914;2023-11-18T11:07:19;6.70;75.50
16032;DHT22;8120;48.308;8.914;2023-11-18T11:09:48;6.50;75.20
16032;DHT22;8120;48.308;8.914;2023-11-18T11:12:23;6.30;76.50
16032;DHT22;8120;48.308;8.914;2023-11-18T11:14:59;6.30;75.90
16032;DHT22;8120;48.308;8.914;2023-11-18T11:17:30;6.30;77.80
16032;DHT22;8120;48.308;8.914;2023-11-18T11:20:05;6.30;78.80
16032;DHT22;8120;48.308;8.914;2023-11-18T11:23:01;6.60;77.10
16032;DHT22;8120;48.308;8.914;2023-11-18T11:25:42;6.60;76.00
16032;DHT22;8120;48.308;8.914;2023-11-18T11:28:19;6.80;75.50
16032;DHT22;8120;48.308;8.914;2023-11-18T11:30:55;6.80;75.80
16032;DHT22;8120;48.308;8.914;2023-11-18T11:33:27;6.60;76.70
16032;DHT22;8120;48.308;8.914;2023-11-18T11:35:59;6.80;77.90
16032;DHT22;8120;48.308;8.914;2023-11-18T11:38:32;7.00;74.90
16032;DHT22;8120;48.308;8.914;2023-11-18T11:41:00;6.90;74.60
16032;DHT22;8120;48.308;8.914;2023-11-18T11:43:32;6.90;75.70
16032;DHT22;8120;48.308;8.914;2023-11-18T11:46:02;6.80;74.40
16032;DHT22;8120;48.308;8.914;2023-11-18T11:48:38;6.70;76.00
16032;DHT22;8120;48.308;8.914;2023-11-18T11:51:19;6.80;74.50
16032;DHT22;8120;48.308;8.914;2023-11-18T11:53:53;6.80;75.80
16032;DHT22;8120;48.308;8.914;2023-11-18T11:56:38;6.70;76.30
16032;DHT22;8120;48.308;8.914;2023-11-18T11:59:07;6.80;75.70
16032;DHT22;8120;48.308;8.914;2023-11-18T12:01:39;6.90;75.60
16032;DHT22;8120;48.308;8.914;2023-11-18T12:04:15;6.80;75.70
16032;DHT22;8120;48.308;8.914;2023-11-18T12:06:50;6.80;74.20
16032;DHT22;8120;48.308;8.914;2023-11-18T12:09:40;6.70;74.90
16032;DHT22;8120;48.308;8.914;2023-11-18T12:12:17;6.60;74.70
16032;DHT22;8120;48.308;8.914;2023-11-18T12:14:49;6.50;76.10
16032;DHT22;8120;48.308;8.914;2023-11-18T12:17:19;6.70;75.60
16032;DHT22;8120;48.308;8.914;2023-11-18T12:19:51;6.70;73.90
16032;DHT22;8120;48.308;8.914;2023-11-18T12:22:25;6.80;75.10
16032;DHT22;8120;48.308;8.914;2023-11-18T12:25:31;6.80;74.00
16032;DHT22;8120;48.308;8.914;2023-11-18T12:28:11;6.70;74.20
16032;DHT22;8120;48.308;8.914;2023-11-18T12:30:43;6.70;74.70
16032;DHT22;8120;48.308;8.914;2023-11-18T12:33:19;6.80;75.30
16032;DHT22;8120;48.308;8.914;2023-11-18T12:42:02;6.50;77.40
16032;DHT22;8120;48.308;8.914;2023-11-18T12:44:36;6.40;76.90
16032;DHT22;8120;48.308;8.914;2023-11-18T12:47:08;6.30;77.80
16032;DHT22;8120;48.308;8.914;2023-11-18T12:49:45;6.20;78.60
16032;DHT22;8120;48.308;8.914;2023-11-18T12:52:22;6.10;78.70
16032;DHT22;8120;48.308;8.914;2023-11-18T12:54:51;6.30;78.10
16032;DHT22;8120;48.308;8.914;2023-11-18T12:57:27;6.30;74.80
16032;DHT22;8120;48.308;8.914;2023-11-18T12:59:59;6.10;75.90
16032;DHT22;8120;48.308;8.914;2023-11-18T13:02:28;6.00;77.50
16032;DHT22;8120;48.308;8.914;2023-11-18T13:04:59;6.00;77.40
16032;DHT22;8120;48.308;8.914;2023-11-18T13:07:27;6.00;78.40
16032;DHT22;8120;48.308;8.914;2023-11-18T13:09:55;5.90;79.00
16032;DHT22;8120;48.308;8.914;2023-11-18T13:12:23;5.80;80.60
16032;DHT22;8120;48.308;8.914;2023-11-18T13:14:56;5.70;80.40
16032;DHT22;8120;48.308;8.914;2023-11-18T13:17:24;5.80;79.60
16032;DHT22;8120;48.308;8.914;2023-11-18T13:19:55;5.80;79.90
16032;DHT22;8120;48.308;8.914;2023-11-18T13:22:24;5.80;80.20
16032;DHT22;8120;48.308;8.914;2023-11-18T13:25:11;5.90;79.00
16032;DHT22;8120;48.308;8.914;2023-11-18T13:27:41;6.00;78.90
16032;DHT22;8120;48.308;8.914;2023-11-18T13:30:11;5.90;78.80
16032;DHT22;8120;48.308;8.914;2023-11-18T13:32:40;5.80;78.20
16032;DHT22;8120;48.308;8.914;2023-11-18T13:35:09;5.80;78.00
16032;DHT22;8120;48.308;8.914;2023-11-18T13:37:40;5.70;78.80
16032;DHT22;8120;48.308;8.914;2023-11-18T13:40:09;5.70;79.10
16032;DHT22;8120;48.308;8.914;2023-11-18T13:42:37;5.60;78.80
16032;DHT22;8120;48.308;8.914;2023-11-18T13:45:13;5.60;78.40
16032;DHT22;8120;48.308;8.914;2023-11-18T13:48:02;5.60;78.50
16032;DHT22;8120;48.308;8.914;2023-11-18T13:50:29;5.70;78.20
16032;DHT22;8120;48.308;8.914;2023-11-18T13:52:57;5.70;78.30
16032;DHT22;8120;48.308;8.914;2023-11-18T13:55:27;5.70;78.00
16032;DHT22;8120;48.308;8.914;2023-11-18T13:57:59;5.70;77.70
16032;DHT22;8120;48.308;8.914;2023-11-18T14:00:28;5.80;76.50
16032;DHT22;8120;48.308;8.914;2023-11-18T14:02:58;5.90;76.30
16032;DHT22;8120;48.308;8.914;2023-11-18T14:05:27;5.90;75.30
16032;DHT22;8120;48.308;8.914;2023-11-18T14:07:58;5.90;75.40
16032;DHT22;8120;48.308;8.914;2023-11-18T14:10:27;5.90;75.40
16032;DHT22;8120;48.308;8.914;2023-11-18T14:12:59;5.90;76.30
16032;DHT22;8120;48.308;8.914;2023-11-18T14:15:29;5.90;76.80
16032;DHT22;8120;48.308;8.914;2023-11-18T14:17:57;5.90;77.20
16032;DHT22;8120;48.308;8.914;2023-11-18T14:20:25;5.80;77.10
16032;DHT22;8120;48.308;8.914;2023-11-18T14:22:53;5.80;77.00
16032;DHT22;8120;48.308;8.914;2023-11-18T14:25:21;5.80;76.80
16032;DHT22;8120;48.308;8.914;2023-11-18T14:27:50;5.70;78.20
16032;DHT22;8120;48.308;8.914;2023-11-18T14:30:20;5.70;78.30
16032;DHT22;8120;48.308;8.914;2023-11-18T14:32:52;5.70;77.10
16032;DHT22;8120;48.308;8.914;2023-11-18T14:35:20;5.60;77.80
16032;DHT22;8120;48.308;8.914;2023-11-18T14:37:51;5.60;78.10
16032;DHT22;8120;48.308;8.914;2023-11-18T14:40:19;5.50;77.80
16032;DHT22;8120;48.308;8.914;2023-11-18T14:42:50;5.50;77.80
16032;DHT22;8120;48.308;8.914;2023-11-18T14:45:19;5.40;77.80
16032;DHT22;8120;48.308;8.914;2023-11-18T14:47:47;5.40;77.70
16032;DHT22;8120;48.308;8.914;2023-11-18T14:50:20;5.40;78.40
16032;DHT22;8120;48.308;8.914;2023-11-18T14:52:51;5.30;78.60
16032;DHT22;8120;48.308;8.914;2023-11-18T14:55:25;5.40;78.00
16032;DHT22;8120;48.308;8.914;2023-11-18T14:57:53;5.30;79.30
16032;DHT22;8120;48.308;8.914;2023-11-18T15:00:22;5.30;79.70
16032;DHT22;8120;48.308;8.914;2023-11-18T15:02:53;5.20;79.60
16032;DHT22;8120;48.308;8.914;2023-11-18T15:05:27;5.20;80.10
16032;DHT22;8120;48.308;8.914;2023-11-18T15:07:56;5.20;80.80
16032;DHT22;8120;48.308;8.914;2023-11-18T15:10:26;5.20;80.90
16032;DHT22;8120;48.308;8.914;2023-11-18T15:12:55;5.10;80.90
16032;DHT22;8120;48.308;8.914;2023-11-18T15:15:26;5.10;81.10
16032;DHT22;8120;48.308;8.914;2023-11-18T15:17:58;5.10;80.70
16032;DHT22;8120;48.308;8.914;2023-11-18T15:20:28;5.10;81.10
16032;DHT22;8120;48.308;8.914;2023-11-18T15:22:56;5.10;81.40
16032;DHT22;8120;48.308;8.914;2023-11-18T15:25:24;5.00;81.40
16032;DHT22;8120;48.308;8.914;2023-11-18T15:27:53;5.10;80.20
16032;DHT22;8120;48.308;8.914;2023-11-18T15:30:23;5.10;80.00
16032;DHT22;8120;48.308;8.914;2023-11-18T15:32:52;5.10;80.00
16032;DHT22;8120;48.308;8.914;2023-11-18T15:35:20;5.10;80.30
16032;DHT22;8120;48.308;8.914;2023-11-18T15:37:50;5.10;80.00
16032;DHT22;8120;48.308;8.914;2023-11-18T15:40:18;5.00;79.40
16032;DHT22;8120;48.308;8.914;2023-11-18T15:42:48;5.00;79.30
16032;DHT22;8120;48.308;8.914;2023-11-18T15:45:18;5.10;78.40
16032;DHT22;8120;48.308;8.914;2023-11-18T15:47:46;5.10;78.20
16032;DHT22;8120;48.308;8.914;2023-11-18T15:50:16;5.10;78.40
16032;DHT22;8120;48.308;8.914;2023-11-18T15:52:46;5.10;78.30
16032;DHT22;8120;48.308;8.914;2023-11-18T15:55:17;5.10;78.40
16032;DHT22;8120;48.308;8.914;2023-11-18T15:57:45;5.10;77.70
16032;DHT22;8120;48.308;8.914;2023-11-18T16:00:19;5.10;77.70
16032;DHT22;8120;48.308;8.914;2023-11-18T16:02:49;5.10;78.20
16032;DHT22;8120;48.308;8.914;2023-11-18T16:05:18;5.10;77.40
16032;DHT22;8120;48.308;8.914;2023-11-18T16:07:48;5.10;77.70
16032;DHT22;8120;48.308;8.914;2023-11-18T16:10:19;5.10;78.40
16032;DHT22;8120;48.308;8.914;2023-11-18T16:12:48;5.10;77.80
16032;DHT22;8120;48.308;8.914;2023-11-18T16:15:17;5.10;77.70
16032;DHT22;8120;48.308;8.914;2023-11-18T16:17:47;5.10;77.50
16032;DHT22;8120;48.308;8.914;2023-11-18T16:20:17;5.00;78.00
16032;DHT22;8120;48.308;8.914;2023-11-18T16:22:46;5.10;76.30
16032;DHT22;8120;48.308;8.914;2023-11-18T16:25:15;5.10;77.30
16032;DHT22;8120;48.308;8.914;2023-11-18T16:27:46;5.00;77.80